Airfield :
LOGIN :

Register | Disclaimer

   EN    FR    IT 

 










Legend :    VFR   Marginal VFR   IFR   Intensive IFR   Very Intensive IFR
Visi :
Ceiling :
>= 8 km
>= 3000ft
5 to 8 km
1000 to 3000 ft
1500m to 5 km
500 to 1000 ft
800 to 1500m
200 to 500 ft
< 800m
< 200 ft
Symbols :   Thunderstorms  Fog  Heavy snow  Heavy precipitations  Wind > 20 kt
SIGMETs :     Misc.  Thunderstorms  Icing  Turbulence  Mountain Waves  Volcanic Ashes







- Airport Elevation : 47 ft
- IATA code : BMA


ESSB - Stockholm-Bromma

CURRENT METAR :
  • 161850Z 16009KT CAVOK 21/16 Q1014

EXPIRED METARs :
  • 161820Z 17009KT CAVOK 21/16 Q1014
  • 161750Z 16009KT 130V200 CAVOK 21/16 Q1014
  • 161720Z 17010KT CAVOK 21/16 Q1014
  • 161650Z 17009KT 140V200 CAVOK 22/15 Q1014
  • 161620Z 17011KT CAVOK 22/15 Q1014

TAF TAF ESSB
Valid from the 16 at 18:00 until the 16 at 20:00 UTC


161730Z 1618/1620 18008KT CAVOK
No reported NOTAMs for that airfield.



MET'MAP, your aeronautical weather chart ! - Copyright ORBIFLY December 2007 - Disclaimer

ORBIFLY MET'MAP TEAM :

Programming & Development : Alexandra Zaïnal
Concept & Development : Baudouin d'Aumeries
Co-Development & Prog : Marc-Olivier Méhu
Technical & hardware support : Manuel Goepfert

Contact : metmap@orbifly.com




SOURCES & CREDITS :

   NOAA